Time;durP1;ratioP1;P1;durP2;ratioP2;P2;SDS_P1;SDS_P2;PMS_P1;PMS_P2;Temp;Humidity;BMP_temperature;BMP_pressure;BME280_temperature;BME280_humidity;BME280_pressure;Samples;Min_cycle;Max_cycle;Signal;HPM_P1;HPM_P2
2022/06/11 00:01:47;;;;;;;3.28;1.58;;;18.00;93.40;;;;;;4956254;28;20023;-76
2022/06/11 00:04:26;;;;;;;3.00;1.60;;;18.00;93.40;;;;;;4956028;28;20034;-76
2022/06/11 00:06:55;;;;;;;2.72;1.60;;;18.00;93.30;;;;;;4973570;28;20038;-76
2022/06/11 00:09:23;;;;;;;3.30;1.55;;;18.00;93.30;;;;;;4956143;28;20030;-76
2022/06/11 00:11:51;;;;;;;3.28;1.40;;;18.10;93.20;;;;;;4955826;28;20033;-76
2022/06/11 00:14:18;;;;;;;3.10;1.77;;;18.10;93.10;;;;;;4955829;28;20035;-76
2022/06/11 00:16:44;;;;;;;4.10;1.60;;;18.10;93.10;;;;;;4973349;28;20107;-76
2022/06/11 00:19:09;;;;;;;2.72;1.45;;;18.10;93.10;;;;;;4973413;28;20058;-75
2022/06/11 00:21:38;;;;;;;3.22;1.42;;;18.10;93.10;;;;;;4974548;28;20050;-74
2022/06/11 00:24:05;;;;;;;2.50;1.50;;;18.10;93.00;;;;;;4971943;28;20035;-75
2022/06/11 00:26:30;;;;;;;1.90;1.30;;;18.10;92.90;;;;;;4972495;28;20031;-74
2022/06/11 00:28:57;;;;;;;4.90;1.65;;;18.10;93.10;;;;;;4965549;28;20389;-74
2022/06/11 00:31:23;;;;;;;4.70;1.50;;;18.10;93.10;;;;;;4971022;28;20023;-74
2022/06/11 00:33:48;;;;;;;2.63;1.40;;;18.10;93.10;;;;;;4975098;28;20030;-74
2022/06/11 00:36:16;;;;;;;3.00;1.48;;;18.10;93.20;;;;;;4950908;28;20026;-74
2022/06/11 00:38:42;;;;;;;5.40;1.80;;;18.00;93.00;;;;;;4976214;28;20130;-75
2022/06/11 00:41:08;;;;;;;6.25;1.77;;;18.00;92.90;;;;;;4954721;29;20020;-74
2022/06/11 00:43:37;;;;;;;4.30;1.60;;;18.00;93.00;;;;;;4976899;28;20101;-75
2022/06/11 00:46:40;;;;;;;4.38;1.63;;;18.00;93.00;;;;;;4943871;28;20023;-75
2022/06/11 00:49:23;;;;;;;5.30;1.50;;;18.00;93.00;;;;;;4973433;28;20027;-74
2022/06/11 00:51:54;;;;;;;3.92;1.60;;;18.00;93.00;;;;;;4975851;28;20037;-74
2022/06/11 00:54:25;;;;;;;3.65;1.50;;;18.00;93.00;;;;;;4974566;28;20027;-74
2022/06/11 00:56:55;;;;;;;3.47;1.50;;;18.00;93.00;;;;;;4974941;28;20043;-74
2022/06/11 00:59:29;;;;;;;3.03;1.50;;;18.00;93.00;;;;;;4974936;28;20078;-74
2022/06/11 01:01:55;;;;;;;3.65;1.50;;;18.00;93.00;;;;;;4974778;28;20085;-75
2022/06/11 01:04:39;;;;;;;3.30;1.63;;;18.00;93.10;;;;;;4974369;28;20428;-74
2022/06/11 01:07:14;;;;;;;3.42;1.70;;;18.00;93.10;;;;;;4990826;28;20122;-74
2022/06/11 01:10:17;;;;;;;2.80;1.45;;;18.00;92.90;;;;;;4990819;28;20035;-74
2022/06/11 01:12:50;;;;;;;4.05;1.58;;;18.00;92.90;;;;;;4975686;28;20033;-74
2022/06/11 01:15:23;;;;;;;1.88;1.30;;;18.10;92.80;;;;;;4975661;28;20026;-74
2022/06/11 01:18:05;;;;;;;2.22;1.35;;;18.10;92.80;;;;;;4958457;28;20033;-75
2022/06/11 01:20:43;;;;;;;3.58;1.45;;;18.10;92.80;;;;;;4990718;28;20081;-74
2022/06/11 01:23:45;;;;;;;3.70;1.50;;;18.10;92.80;;;;;;4989063;28;20027;-75
2022/06/11 01:26:48;;;;;;;3.05;1.38;;;18.10;92.70;;;;;;4970706;28;20062;-76
2022/06/11 01:29:52;;;;;;;3.80;1.70;;;18.10;92.70;;;;;;4975808;28;20027;-75
2022/06/11 01:32:34;;;;;;;3.28;1.30;;;18.00;92.80;;;;;;4975250;28;20504;-76
2022/06/11 01:35:23;;;;;;;3.28;1.40;;;18.00;92.80;;;;;;4974452;28;20037;-77
2022/06/11 01:38:04;;;;;;;2.13;1.33;;;18.00;92.90;;;;;;4958170;28;20153;-76
2022/06/11 01:40:37;;;;;;;2.80;1.40;;;18.00;92.90;;;;;;4957475;28;20121;-76
2022/06/11 01:43:19;;;;;;;2.95;1.23;;;18.00;92.90;;;;;;4957596;28;20034;-76
2022/06/11 01:45:46;;;;;;;2.28;1.50;;;18.00;93.20;;;;;;4957670;28;20165;-76
2022/06/11 01:48:17;;;;;;;3.30;1.65;;;18.00;93.00;;;;;;4957832;28;20069;-76
2022/06/11 01:50:50;;;;;;;3.00;1.67;;;18.00;93.00;;;;;;4957811;28;20051;-76
2022/06/11 01:53:40;;;;;;;2.10;1.30;;;18.00;92.90;;;;;;4953787;29;20023;-76
2022/06/11 01:56:37;;;;;;;3.50;1.60;;;18.00;93.00;;;;;;4955413;28;20032;-74
2022/06/11 01:59:31;;;;;;;2.35;1.30;;;18.00;93.00;;;;;;4955310;29;20086;-74
2022/06/11 02:01:59;;;;;;;2.92;1.50;;;18.00;93.00;;;;;;4938228;29;20068;-74
2022/06/11 02:05:06;;;;;;;2.75;1.42;;;18.00;93.00;;;;;;4937815;29;20055;-75
2022/06/11 02:07:49;;;;;;;2.78;1.40;;;18.00;93.00;;;;;;4963550;28;20408;-74
2022/06/11 02:10:34;;;;;;;2.55;1.45;;;18.00;92.90;;;;;;4971449;28;20033;-74
2022/06/11 02:13:07;;;;;;;3.60;1.77;;;18.00;92.90;;;;;;4973108;28;20460;-74
2022/06/11 02:15:43;;;;;;;3.60;1.50;;;18.00;92.80;;;;;;4973416;28;20023;-74
2022/06/11 02:18:13;;;;;;;2.47;1.38;;;18.10;92.80;;;;;;4974392;28;20058;-74
2022/06/11 02:20:45;;;;;;;2.40;1.40;;;18.10;92.80;;;;;;4989334;28;20089;-74
2022/06/11 02:23:18;;;;;;;2.55;1.30;;;18.10;92.70;;;;;;4964422;28;20027;-74
2022/06/11 02:25:48;;;;;;;2.88;1.30;;;18.10;92.80;;;;;;4974139;28;20030;-74
2022/06/11 02:28:19;;;;;;;3.92;1.50;;;18.00;92.80;;;;;;4984835;28;20183;-73
2022/06/11 02:30:48;;;;;;;3.53;1.60;;;18.00;92.80;;;;;;4967132;28;20031;-73
2022/06/11 02:33:17;;;;;;;3.63;1.65;;;18.00;92.80;;;;;;4972583;28;20037;-74
2022/06/11 02:35:51;;;;;;;3.22;1.60;;;18.00;92.90;;;;;;4963055;28;20082;-73
2022/06/11 02:38:20;;;;;;;2.80;1.40;;;18.00;92.90;;;;;;4958155;28;20033;-75
2022/06/11 02:40:50;;;;;;;3.00;1.65;;;18.00;92.90;;;;;;4972926;28;20042;-75
2022/06/11 02:43:17;;;;;;;3.65;1.42;;;18.00;92.90;;;;;;4973621;28;20398;-75
2022/06/11 02:45:42;;;;;;;4.30;1.60;;;18.00;93.00;;;;;;4976399;28;20381;-74
2022/06/11 02:48:08;;;;;;;3.28;1.70;;;18.00;93.00;;;;;;4986288;28;20026;-73
2022/06/11 02:50:35;;;;;;;2.72;1.50;;;18.00;93.00;;;;;;4955080;28;20030;-74
2022/06/11 02:53:02;;;;;;;2.55;1.50;;;18.00;93.00;;;;;;4971941;28;20027;-75
2022/06/11 02:55:28;;;;;;;2.72;1.55;;;17.90;93.00;;;;;;5004561;28;20121;-75
2022/06/11 02:57:55;;;;;;;4.50;1.40;;;17.90;93.00;;;;;;4956612;28;20125;-74
2022/06/11 03:00:26;;;;;;;3.25;1.77;;;17.90;93.00;;;;;;4956377;28;20043;-74
2022/06/11 03:02:51;;;;;;;2.50;1.30;;;17.90;92.90;;;;;;4973479;28;20026;-72
2022/06/11 03:05:20;;;;;;;3.72;1.73;;;18.00;93.00;;;;;;4956151;28;20480;-74
2022/06/11 03:07:47;;;;;;;2.75;1.50;;;18.00;93.00;;;;;;4955873;28;20045;-75
2022/06/11 03:10:15;;;;;;;2.45;1.40;;;18.00;92.90;;;;;;4973427;28;20507;-75
2022/06/11 03:12:41;;;;;;;3.47;1.55;;;18.00;92.80;;;;;;4956265;28;20117;-74
2022/06/11 03:15:07;;;;;;;2.70;1.48;;;18.00;92.80;;;;;;4972956;28;20560;-74
2022/06/11 03:17:33;;;;;;;2.22;1.23;;;18.00;92.70;;;;;;4956129;28;20023;-74
2022/06/11 03:19:59;;;;;;;4.32;1.30;;;18.10;92.80;;;;;;4973351;28;20566;-74
2022/06/11 03:22:25;;;;;;;2.85;1.55;;;18.00;92.70;;;;;;4955699;28;20113;-74
2022/06/11 03:24:52;;;;;;;3.53;1.50;;;18.00;92.70;;;;;;4971848;28;20114;-75
2022/06/11 03:27:17;;;;;;;2.45;1.30;;;18.00;92.80;;;;;;4955823;28;20147;-73
2022/06/11 03:29:44;;;;;;;2.83;1.48;;;18.00;92.80;;;;;;4955995;28;20440;-75
2022/06/11 03:32:10;;;;;;;2.75;1.20;;;18.00;92.90;;;;;;4973196;28;20027;-76
2022/06/11 03:34:36;;;;;;;2.10;1.42;;;18.00;92.90;;;;;;4955073;28;20400;-75
2022/06/11 03:37:03;;;;;;;2.47;1.50;;;18.00;92.90;;;;;;4955811;28;20026;-74
2022/06/11 03:39:28;;;;;;;3.42;1.60;;;18.00;92.90;;;;;;4973086;28;20031;-75
2022/06/11 03:41:54;;;;;;;2.72;1.52;;;17.90;92.90;;;;;;4955584;28;20161;-75
2022/06/11 03:44:20;;;;;;;3.55;1.40;;;18.00;92.90;;;;;;4972614;28;20037;-74
2022/06/11 03:46:46;;;;;;;2.22;1.50;;;17.90;92.90;;;;;;4972851;28;20031;-74
2022/06/11 03:49:13;;;;;;;3.53;1.50;;;18.00;92.90;;;;;;4987640;28;20035;-75
2022/06/11 03:51:39;;;;;;;3.22;1.70;;;17.90;92.90;;;;;;4966412;28;20031;-74
2022/06/11 03:54:07;;;;;;;2.83;1.50;;;17.90;92.90;;;;;;4971137;28;20502;-74
2022/06/11 03:56:33;;;;;;;2.83;1.50;;;17.90;92.90;;;;;;4972836;28;20081;-74
2022/06/11 03:58:59;;;;;;;3.13;1.48;;;17.90;92.90;;;;;;4972623;28;20027;-73
2022/06/11 04:01:24;;;;;;;2.67;1.38;;;18.00;92.90;;;;;;4966112;28;20098;-75
2022/06/11 04:03:57;;;;;;;1.95;1.30;;;18.00;93.00;;;;;;4963496;28;20069;-71
2022/06/11 04:06:30;;;;;;;2.47;1.27;;;18.00;92.90;;;;;;4964277;28;20035;-75
2022/06/11 04:08:56;;;;;;;2.92;1.50;;;18.00;92.90;;;;;;4990043;28;20035;-74
2022/06/11 04:11:23;;;;;;;1.95;1.40;;;18.00;92.80;;;;;;4975439;28;20078;-74
2022/06/11 04:13:50;;;;;;;3.78;1.60;;;18.00;92.80;;;;;;4968817;28;20551;-73
2022/06/11 04:16:21;;;;;;;1.85;1.30;;;18.00;92.70;;;;;;4949328;28;20098;-74
2022/06/11 04:18:48;;;;;;;2.35;1.40;;;18.10;92.70;;;;;;4974838;28;20710;-74
2022/06/11 04:21:15;;;;;;;2.15;1.30;;;18.00;92.60;;;;;;4957190;28;20110;-74
2022/06/11 04:23:44;;;;;;;2.38;1.33;;;18.00;92.60;;;;;;4946374;28;20023;-74
2022/06/11 04:26:14;;;;;;;2.30;1.25;;;18.00;92.60;;;;;;4963052;28;20030;-74
2022/06/11 04:28:40;;;;;;;2.80;1.40;;;18.00;92.70;;;;;;4976085;28;20122;-74
2022/06/11 04:31:07;;;;;;;4.03;1.60;;;18.00;92.70;;;;;;4971844;28;20049;-74
2022/06/11 04:33:33;;;;;;;1.95;1.30;;;18.00;92.70;;;;;;4958956;28;20023;-75
2022/06/11 04:35:59;;;;;;;1.92;1.30;;;18.00;92.80;;;;;;4975599;28;20027;-75
2022/06/11 04:38:25;;;;;;;2.40;1.40;;;18.00;92.80;;;;;;4991134;28;20507;-75
2022/06/11 04:40:51;;;;;;;2.08;1.30;;;18.00;92.80;;;;;;4991031;28;20030;-75
2022/06/11 04:43:17;;;;;;;2.30;1.50;;;18.00;92.80;;;;;;4975885;28;20197;-76
2022/06/11 04:45:42;;;;;;;2.20;1.40;;;18.00;92.80;;;;;;4958484;28;20031;-75
2022/06/11 04:48:08;;;;;;;2.67;1.40;;;18.00;92.90;;;;;;4975867;28;20037;-74
2022/06/11 04:50:34;;;;;;;2.53;1.50;;;18.00;92.90;;;;;;4975707;28;20039;-74
2022/06/11 04:53:01;;;;;;;2.35;1.50;;;18.00;92.80;;;;;;4975127;28;20029;-74
2022/06/11 04:55:27;;;;;;;2.10;1.30;;;18.00;92.80;;;;;;4974914;28;20043;-74
2022/06/11 04:57:53;;;;;;;3.70;1.65;;;18.00;93.10;;;;;;4975754;28;20546;-75
2022/06/11 05:00:22;;;;;;;1.90;1.35;;;18.00;92.80;;;;;;4973792;28;20038;-75
2022/06/11 05:02:48;;;;;;;2.72;1.40;;;18.00;92.80;;;;;;4975508;28;20030;-74
2022/06/11 05:05:15;;;;;;;2.92;1.30;;;18.00;92.80;;;;;;4958408;28;20033;-74
2022/06/11 05:07:42;;;;;;;2.45;1.40;;;18.00;92.70;;;;;;4975878;28;20027;-75
2022/06/11 05:10:09;;;;;;;3.15;1.50;;;18.10;92.70;;;;;;4973863;28;20035;-75
2022/06/11 05:12:35;;;;;;;2.83;1.50;;;18.10;92.60;;;;;;4971976;28;20035;-74
2022/06/11 05:15:00;;;;;;;2.65;1.48;;;18.10;92.50;;;;;;4953972;28;20079;-75
2022/06/11 05:17:26;;;;;;;2.53;1.40;;;18.10;92.50;;;;;;4970768;28;20027;-74
2022/06/11 05:19:52;;;;;;;2.08;1.40;;;18.10;92.40;;;;;;4989023;28;20031;-74
2022/06/11 05:22:17;;;;;;;2.78;1.60;;;18.10;92.40;;;;;;4975343;28;20035;-75
2022/06/11 05:24:43;;;;;;;2.28;1.42;;;18.10;92.40;;;;;;4975017;28;20518;-74
2022/06/11 05:27:18;;;;;;;1.75;1.30;;;18.10;92.50;;;;;;4974963;28;20033;-75
2022/06/11 05:29:48;;;;;;;2.05;1.50;;;18.10;92.50;;;;;;4990079;28;20027;-75
2022/06/11 05:32:15;;;;;;;2.30;1.50;;;18.10;92.50;;;;;;4956892;28;20081;-74
2022/06/11 05:34:42;;;;;;;2.78;1.55;;;18.10;92.80;;;;;;4957801;28;20026;-75
2022/06/11 05:37:07;;;;;;;2.72;1.48;;;18.10;92.60;;;;;;4975137;28;20070;-75
2022/06/11 05:39:33;;;;;;;2.40;1.33;;;18.10;92.60;;;;;;4975561;28;20027;-75
2022/06/11 05:41:58;;;;;;;2.38;1.55;;;18.10;92.60;;;;;;4975378;28;20738;-74
2022/06/11 05:44:24;;;;;;;2.58;1.60;;;18.10;92.60;;;;;;4989829;28;20023;-75
2022/06/11 05:46:51;;;;;;;3.90;1.42;;;18.10;92.60;;;;;;4990386;28;20030;-74
2022/06/11 05:49:20;;;;;;;2.08;1.55;;;18.10;92.60;;;;;;4973822;28;20077;-75
2022/06/11 05:51:50;;;;;;;2.83;1.67;;;18.10;92.60;;;;;;4973950;28;20027;-74
2022/06/11 05:54:20;;;;;;;2.30;1.60;;;18.00;92.60;;;;;;4989770;28;20026;-75
2022/06/11 05:56:46;;;;;;;2.40;1.70;;;18.10;92.60;;;;;;4973634;28;20026;-75
2022/06/11 05:59:17;;;;;;;2.33;1.40;;;18.10;92.60;;;;;;4974992;28;20062;-74
2022/06/11 06:01:43;;;;;;;1.80;1.40;;;18.10;92.60;;;;;;4974842;28;20053;-74
2022/06/11 06:04:09;;;;;;;3.28;1.50;;;18.10;92.50;;;;;;4989384;28;20126;-75
2022/06/11 06:06:35;;;;;;;3.05;1.60;;;18.10;92.50;;;;;;4973576;28;20027;-74
2022/06/11 06:09:01;;;;;;;2.28;1.50;;;18.10;92.40;;;;;;4973551;28;20027;-74
2022/06/11 06:11:27;;;;;;;2.28;1.38;;;18.10;92.30;;;;;;4973431;28;20507;-76
2022/06/11 06:13:53;;;;;;;2.08;1.30;;;18.20;92.30;;;;;;4973188;28;20031;-74
2022/06/11 06:16:22;;;;;;;2.65;1.40;;;18.20;92.20;;;;;;4974653;28;20023;-74
2022/06/11 06:18:49;;;;;;;2.30;1.40;;;18.20;92.10;;;;;;4974473;28;20023;-74
2022/06/11 06:21:16;;;;;;;2.72;1.40;;;18.20;92.10;;;;;;4974636;28;20019;-74
2022/06/11 06:23:41;;;;;;;1.80;1.30;;;18.20;92.10;;;;;;4974727;28;20472;-75
2022/06/11 06:26:07;;;;;;;2.85;1.50;;;18.20;92.10;;;;;;4975072;28;20118;-75
2022/06/11 06:28:34;;;;;;;1.98;1.30;;;18.20;92.10;;;;;;4974952;28;20023;-75
2022/06/11 06:31:00;;;;;;;2.35;1.38;;;18.20;92.20;;;;;;4974756;28;20114;-74
2022/06/11 06:33:27;;;;;;;2.13;1.40;;;18.20;92.20;;;;;;4974609;28;20051;-75
2022/06/11 06:35:53;;;;;;;2.30;1.20;;;18.20;92.20;;;;;;4973730;28;20023;-76
2022/06/11 06:38:18;;;;;;;2.33;1.50;;;18.20;92.20;;;;;;4973509;28;20027;-77
2022/06/11 06:40:44;;;;;;;2.17;1.30;;;18.20;92.20;;;;;;4973540;28;20049;-75
2022/06/11 06:43:10;;;;;;;2.88;1.52;;;18.20;92.20;;;;;;4974412;28;20030;-76
2022/06/11 06:45:35;;;;;;;2.60;1.50;;;18.20;92.20;;;;;;4973270;28;20022;-72
2022/06/11 06:48:02;;;;;;;2.05;1.30;;;18.20;92.20;;;;;;4973227;28;20121;-73
2022/06/11 06:50:28;;;;;;;2.92;1.58;;;18.20;92.20;;;;;;4974075;28;20030;-75
2022/06/11 06:52:54;;;;;;;1.98;1.23;;;18.20;92.20;;;;;;4972680;28;20030;-77
2022/06/11 06:55:19;;;;;;;3.10;1.55;;;18.30;92.20;;;;;;4989303;28;20034;-76
2022/06/11 06:57:45;;;;;;;2.92;1.52;;;18.30;92.10;;;;;;4974401;28;20018;-76
2022/06/11 07:00:11;;;;;;;3.15;1.60;;;18.30;92.10;;;;;;4973135;28;20463;-76
2022/06/11 07:02:37;;;;;;;2.10;1.40;;;18.30;92.00;;;;;;4974242;28;20041;-77
2022/06/11 07:05:03;;;;;;;2.08;1.30;;;18.30;92.00;;;;;;4974075;28;20031;-76
2022/06/11 07:07:29;;;;;;;2.75;1.40;;;18.30;91.90;;;;;;4974341;28;20026;-76
2022/06/11 07:09:56;;;;;;;1.98;1.40;;;18.40;91.90;;;;;;4974081;28;20500;-75
2022/06/11 07:12:22;;;;;;;2.00;1.30;;;18.40;91.70;;;;;;4973986;28;20022;-76
2022/06/11 07:14:47;;;;;;;2.63;1.27;;;18.40;91.60;;;;;;4956495;28;20031;-76
2022/06/11 07:17:15;;;;;;;2.30;1.35;;;18.50;91.60;;;;;;4988914;28;20396;-77
2022/06/11 07:19:56;;;;;;;2.05;1.40;;;18.50;91.50;;;;;;4989091;28;20097;-76
2022/06/11 07:22:33;;;;;;;2.00;1.50;;;18.50;91.50;;;;;;4974096;28;20178;-77
2022/06/11 07:25:01;;;;;;;1.40;1.20;;;18.40;91.50;;;;;;4956360;28;20114;-75
2022/06/11 07:27:31;;;;;;;2.92;1.60;;;18.40;91.50;;;;;;4973783;28;20121;-77
2022/06/11 07:30:10;;;;;;;2.05;1.42;;;18.50;91.60;;;;;;4988747;28;20031;-75
2022/06/11 07:32:38;;;;;;;2.47;1.48;;;18.40;91.60;;;;;;4956376;28;20038;-76
2022/06/11 07:35:05;;;;;;;2.72;1.77;;;18.50;91.60;;;;;;4988465;28;20038;-75
2022/06/11 07:37:33;;;;;;;2.45;1.85;;;18.50;91.60;;;;;;4973662;28;20019;-76
2022/06/11 07:39:58;;;;;;;2.20;1.42;;;18.50;91.60;;;;;;4988266;28;20488;-78
2022/06/11 07:42:24;;;;;;;2.53;1.65;;;18.50;91.60;;;;;;4988447;28;20035;-72
2022/06/11 07:44:50;;;;;;;2.90;1.52;;;18.50;91.60;;;;;;4973157;28;20038;-72
2022/06/11 07:47:53;;;;;;;2.20;1.70;;;18.50;91.60;;;;;;4988350;28;20129;-73
2022/06/11 07:50:02;;;;;;;3.00;1.90;;;18.50;91.50;;;;;;4973427;28;20038;-74
2022/06/11 07:52:27;;;;;;;3.40;1.92;;;18.50;91.50;;;;;;4973425;28;20030;-71
2022/06/11 07:54:53;;;;;;;2.92;2.00;;;18.50;91.50;;;;;;4987998;28;20031;-72
2022/06/11 07:57:19;;;;;;;3.13;2.00;;;18.50;91.50;;;;;;4988446;28;20524;-72
2022/06/11 07:59:44;;;;;;;4.22;2.30;;;18.50;91.50;;;;;;4973337;28;20034;-74
2022/06/11 08:02:09;;;;;;;2.28;1.70;;;18.50;91.60;;;;;;4973262;28;20030;-74
2022/06/11 08:04:35;;;;;;;3.35;1.88;;;18.50;91.60;;;;;;4955831;28;20107;-72
2022/06/11 08:07:01;;;;;;;2.50;1.80;;;18.50;91.60;;;;;;4973310;28;20034;-71
2022/06/11 08:09:26;;;;;;;2.20;1.60;;;18.50;91.50;;;;;;4988176;28;20664;-74
2022/06/11 08:11:51;;;;;;;3.22;1.80;;;18.50;91.50;;;;;;4955941;28;20042;-71
2022/06/11 08:14:17;;;;;;;2.83;1.60;;;18.50;91.50;;;;;;4988035;28;20090;-73
2022/06/11 08:16:43;;;;;;;2.40;1.60;;;18.50;91.50;;;;;;4955918;28;20403;-73
2022/06/11 08:19:09;;;;;;;2.72;1.80;;;18.60;91.40;;;;;;4988018;28;20027;-72
2022/06/11 08:21:34;;;;;;;2.90;1.80;;;18.60;91.40;;;;;;4988127;28;20023;-72
2022/06/11 08:24:00;;;;;;;2.78;1.50;;;18.60;91.40;;;;;;4987829;28;20538;-72
2022/06/11 08:26:25;;;;;;;2.50;1.58;;;18.60;91.40;;;;;;4973113;28;20033;-71
2022/06/11 08:28:51;;;;;;;3.22;1.60;;;18.60;91.40;;;;;;4972987;28;20031;-71
2022/06/11 08:31:16;;;;;;;2.28;1.38;;;18.60;91.40;;;;;;4988138;28;20110;-76
2022/06/11 08:33:42;;;;;;;2.67;1.70;;;18.50;91.40;;;;;;4987912;28;20499;-76
2022/06/11 08:36:08;;;;;;;2.25;1.50;;;18.50;91.40;;;;;;4988066;28;20023;-75
2022/06/11 08:38:34;;;;;;;2.63;1.50;;;18.60;91.50;;;;;;4973157;28;20065;-75
2022/06/11 08:40:59;;;;;;;2.78;1.60;;;18.50;91.50;;;;;;4973397;28;20031;-76
2022/06/11 08:43:34;;;;;;;2.42;1.63;;;18.60;91.50;;;;;;4987802;28;20065;-71
2022/06/11 08:46:07;;;;;;;3.25;1.80;;;18.50;91.70;;;;;;4955646;28;20078;-76
2022/06/11 08:48:42;;;;;;;3.20;1.83;;;18.60;91.40;;;;;;4972079;28;20034;-75
2022/06/11 08:51:35;;;;;;;2.42;1.48;;;18.60;91.50;;;;;;4974910;28;20035;-71
2022/06/11 08:54:08;;;;;;;3.80;1.60;;;18.60;91.40;;;;;;4974471;28;20146;-71
2022/06/11 08:56:39;;;;;;;2.17;1.55;;;18.60;91.40;;;;;;4991621;28;20118;-71
2022/06/11 08:59:58;;;;;;;2.53;1.50;;;18.60;91.50;;;;;;4976478;28;20500;-72
2022/06/11 09:02:39;;;;;;;3.17;1.67;;;18.60;91.50;;;;;;4916826;29;20581;-74
2022/06/11 09:05:24;;;;;;;3.00;1.60;;;18.60;91.50;;;;;;4916172;29;20410;-73
2022/06/11 09:08:27;;;;;;;2.42;1.60;;;18.60;91.40;;;;;;4963355;28;20511;-72
2022/06/11 09:11:15;;;;;;;2.63;1.58;;;18.60;91.30;;;;;;4976141;28;20035;-73
2022/06/11 09:13:50;;;;;;;2.30;1.40;;;18.70;91.20;;;;;;4991042;28;20019;-72
2022/06/11 09:16:51;;;;;;;3.20;1.80;;;18.80;91.10;;;;;;4975206;28;20110;-75
2022/06/11 09:19:25;;;;;;;2.95;1.52;;;18.80;91.10;;;;;;4965461;28;20090;-75
2022/06/11 09:22:14;;;;;;;1.95;1.38;;;18.70;91.00;;;;;;4975009;28;20110;-77
2022/06/11 09:25:07;;;;;;;2.47;1.53;;;18.80;91.00;;;;;;4990952;28;20036;-75
2022/06/11 09:27:57;;;;;;;2.08;1.45;;;18.80;91.00;;;;;;4991102;28;20031;-75
2022/06/11 09:30:43;;;;;;;;;;;18.80;91.00;;;;;;4958944;28;20058;-75
2022/06/11 09:33:18;;;;;;;2.33;1.45;;;18.80;91.00;;;;;;4974860;28;19906;-75
2022/06/11 09:35:53;;;;;;;2.33;1.63;;;18.80;91.10;;;;;;4958533;28;20078;-76
2022/06/11 09:38:54;;;;;;;2.17;1.40;;;18.80;91.10;;;;;;4958324;28;20019;-76
2022/06/11 09:42:04;;;;;;;3.97;2.05;;;18.80;91.10;;;;;;4974523;28;20019;-75
2022/06/11 09:44:41;;;;;;;1.90;1.30;;;18.80;91.10;;;;;;4965386;28;20023;-75
2022/06/11 09:47:38;;;;;;;1.83;1.38;;;18.80;91.10;;;;;;4957030;28;20070;-77
2022/06/11 09:50:18;;;;;;;3.13;1.63;;;18.80;91.00;;;;;;4974400;28;20515;-76
2022/06/11 09:52:50;;;;;;;4.38;1.67;;;18.80;90.90;;;;;;4957996;28;20023;-76
2022/06/11 09:55:29;;;;;;;2.08;1.20;;;18.90;90.90;;;;;;4957893;28;20034;-75
2022/06/11 09:58:06;;;;;;;3.53;1.38;;;18.90;91.10;;;;;;4990543;28;20023;-75
2022/06/11 10:00:40;;;;;;;2.65;1.45;;;18.90;90.80;;;;;;4958212;28;20475;-75
2022/06/11 10:03:25;;;;;;;3.03;1.60;;;19.00;90.70;;;;;;4974811;28;20030;-75
2022/06/11 10:06:00;;;;;;;2.90;1.30;;;19.00;90.70;;;;;;4990131;28;20038;-73
2022/06/11 10:08:51;;;;;;;1.75;1.23;;;19.00;90.60;;;;;;4990362;28;20630;-76
2022/06/11 10:11:26;;;;;;;2.65;1.33;;;19.00;90.60;;;;;;4990325;28;20035;-76
2022/06/11 10:13:56;;;;;;;2.67;1.20;;;19.10;90.50;;;;;;4974927;28;20094;-76
2022/06/11 10:16:37;;;;;;;3.20;1.42;;;19.10;90.50;;;;;;4974992;28;20099;-76
2022/06/11 10:19:23;;;;;;;2.70;1.30;;;19.10;90.50;;;;;;4957898;28;20073;-75
2022/06/11 10:22:02;;;;;;;1.83;1.23;;;19.10;90.50;;;;;;4957821;28;20027;-75
2022/06/11 10:24:30;;;;;;;2.65;1.38;;;19.00;90.50;;;;;;4957220;28;20081;-75
2022/06/11 10:27:05;;;;;;;2.42;1.30;;;19.00;90.60;;;;;;4974996;28;20027;-76
2022/06/11 10:29:50;;;;;;;2.42;1.27;;;19.00;90.70;;;;;;4974996;28;20512;-79
2022/06/11 10:32:25;;;;;;;1.75;1.20;;;18.90;90.70;;;;;;4960353;28;20087;-76
2022/06/11 10:35:10;;;;;;;2.63;1.42;;;18.90;90.90;;;;;;4947278;28;20066;-75
2022/06/11 10:37:41;;;;;;;2.33;1.30;;;18.90;91.00;;;;;;4957271;28;20074;-78
2022/06/11 10:40:26;;;;;;;3.03;1.13;;;18.90;91.00;;;;;;4973626;28;20030;-75
2022/06/11 10:43:04;;;;;;;2.72;1.30;;;18.80;91.00;;;;;;4973287;28;20097;-74
2022/06/11 10:45:31;;;;;;;2.22;1.27;;;18.80;91.10;;;;;;4954112;28;20039;-74
2022/06/11 10:47:59;;;;;;;2.63;1.52;;;18.80;91.20;;;;;;4955227;29;20023;-76
2022/06/11 10:50:35;;;;;;;2.45;1.70;;;18.80;91.30;;;;;;4953984;29;20045;-75
2022/06/11 10:53:22;;;;;;;2.67;1.30;;;18.70;91.30;;;;;;4954811;29;20481;-75
2022/06/11 10:55:53;;;;;;;2.97;1.20;;;18.80;91.40;;;;;;4953772;28;20039;-75
2022/06/11 10:58:41;;;;;;;2.50;1.50;;;18.80;91.40;;;;;;4953719;29;20028;-74
2022/06/11 11:01:14;;;;;;;2.60;1.33;;;18.80;91.30;;;;;;4937823;29;20042;-75
2022/06/11 11:03:48;;;;;;;3.33;1.50;;;18.80;91.30;;;;;;4969747;28;20500;-74
2022/06/11 11:06:34;;;;;;;2.47;1.35;;;18.80;91.20;;;;;;4955265;28;20041;-75
2022/06/11 11:09:07;;;;;;;2.50;1.30;;;18.90;91.10;;;;;;4957013;28;20058;-76
2022/06/11 11:11:45;;;;;;;2.45;1.30;;;19.00;91.10;;;;;;4974075;28;20496;-75
2022/06/11 11:14:16;;;;;;;1.52;1.20;;;18.90;91.10;;;;;;4956113;28;20022;-75
2022/06/11 11:16:47;;;;;;;12.38;2.20;;;18.80;91.10;;;;;;4983848;28;20082;-77
2022/06/11 11:19:23;;;;;;;8.25;1.60;;;18.80;91.20;;;;;;4939381;28;20031;-76
2022/06/11 11:22:04;;;;;;;12.70;2.00;;;18.80;91.30;;;;;;4956713;28;20057;-76
2022/06/11 11:25:09;;;;;;;13.43;1.90;;;18.80;91.40;;;;;;4988836;28;20027;-77
2022/06/11 11:27:44;;;;;;;5.28;1.88;;;18.80;91.20;;;;;;4914395;29;20036;-75
2022/06/11 11:30:15;;;;;;;6.80;1.42;;;18.80;91.20;;;;;;4949616;28;20478;-75
2022/06/11 11:32:43;;;;;;;7.68;1.60;;;18.90;91.20;;;;;;4988938;28;20027;-76
2022/06/11 11:35:27;;;;;;;6.15;1.42;;;18.80;91.20;;;;;;4970084;28;20038;-74
2022/06/11 11:38:02;;;;;;;4.78;1.40;;;18.90;91.20;;;;;;4954506;29;20497;-75
2022/06/11 11:40:32;;;;;;;7.47;1.27;;;18.90;91.40;;;;;;4937198;29;20468;-76
2022/06/11 11:43:03;;;;;;;5.25;1.15;;;19.00;91.40;;;;;;4937063;29;20034;-75
2022/06/11 11:45:40;;;;;;;5.90;1.75;;;19.00;91.50;;;;;;4937119;29;20033;-74
2022/06/11 11:48:07;;;;;;;5.10;1.50;;;19.00;92.60;;;;;;4954120;29;20445;-76
2022/06/11 11:50:37;;;;;;;5.20;1.80;;;19.10;92.60;;;;;;4937041;29;20493;-75
2022/06/11 11:53:12;;;;;;;6.25;1.63;;;19.20;92.90;;;;;;4972052;28;20053;-71
2022/06/11 11:55:42;;;;;;;8.30;1.75;;;19.30;93.00;;;;;;4968914;28;20054;-74
2022/06/11 11:58:18;;;;;;;8.13;1.60;;;19.50;93.30;;;;;;4955773;28;20026;-76
2022/06/11 12:01:01;;;;;;;5.80;1.52;;;19.60;93.30;;;;;;4954630;28;20023;-75
2022/06/11 12:03:40;;;;;;;5.00;1.42;;;19.70;93.20;;;;;;4951236;28;20034;-76
2022/06/11 12:06:10;;;;;;;4.47;1.70;;;19.80;93.00;;;;;;4973306;28;20118;-75
2022/06/11 12:08:47;;;;;;;3.65;1.30;;;19.80;93.00;;;;;;4973606;28;20037;-75
2022/06/11 12:11:34;;;;;;;6.50;1.45;;;20.00;93.00;;;;;;4973215;28;20041;-75
2022/06/11 12:14:15;;;;;;;4.82;1.38;;;20.00;93.10;;;;;;4972294;28;20019;-76
2022/06/11 12:16:48;;;;;;;6.72;1.20;;;20.00;93.30;;;;;;4955561;28;20049;-75
2022/06/11 12:19:27;;;;;;;5.07;1.33;;;20.00;93.40;;;;;;4955899;28;20030;-75
2022/06/11 12:22:01;;;;;;;4.95;1.60;;;20.10;93.30;;;;;;4981662;28;20070;-72
2022/06/11 12:24:35;;;;;;;4.97;1.30;;;20.10;93.50;;;;;;4976912;28;20024;-71
2022/06/11 12:27:05;;;;;;;5.60;1.58;;;20.20;93.60;;;;;;4945737;28;20492;-70
2022/06/11 12:29:52;;;;;;;4.57;1.33;;;20.20;93.70;;;;;;4959742;28;20038;-74
2022/06/11 12:32:27;;;;;;;5.00;1.40;;;20.20;94.30;;;;;;4976103;28;20035;-73
2022/06/11 12:34:54;;;;;;;5.70;1.48;;;20.20;94.30;;;;;;4976050;28;20101;-74
2022/06/11 12:37:39;;;;;;;3.95;1.50;;;20.20;94.30;;;;;;4957789;28;20019;-73
2022/06/11 12:40:35;;;;;;;4.53;1.35;;;20.20;94.30;;;;;;4957696;28;20876;-73
2022/06/11 12:43:01;;;;;;;8.15;1.52;;;20.20;94.40;;;;;;4974359;28;20038;-75
2022/06/11 12:45:34;;;;;;;5.45;1.33;;;20.30;94.10;;;;;;4968172;28;20038;-74
2022/06/11 12:48:14;;;;;;;6.55;1.50;;;20.30;94.10;;;;;;4986067;28;20026;-74
2022/06/11 12:50:44;;;;;;;7.40;1.42;;;20.30;93.90;;;;;;4958184;28;20117;-74
2022/06/11 12:53:28;;;;;;;8.20;1.38;;;20.40;93.70;;;;;;4973671;28;20034;-74
2022/06/11 12:56:20;;;;;;;7.38;1.48;;;20.50;93.50;;;;;;4975077;28;20145;-74
2022/06/11 12:59:24;;;;;;;4.75;1.15;;;20.60;93.30;;;;;;4966857;28;20019;-74
2022/06/11 13:02:01;;;;;;;7.03;1.73;;;20.60;92.90;;;;;;4974667;28;20030;-74
2022/06/11 13:04:58;;;;;;;7.13;1.38;;;20.60;92.70;;;;;;4961472;28;20038;-74
2022/06/11 13:07:39;;;;;;;5.95;1.30;;;20.60;92.70;;;;;;4990463;28;20023;-74
2022/06/11 13:10:22;;;;;;;5.00;1.25;;;20.60;92.60;;;;;;4974923;28;20023;-74
2022/06/11 13:12:59;;;;;;;5.97;1.20;;;20.60;92.60;;;;;;4990186;28;20023;-74
2022/06/11 13:15:30;;;;;;;5.78;1.40;;;20.60;92.30;;;;;;4957912;28;20522;-74
2022/06/11 13:18:03;;;;;;;;;;;20.60;92.30;;;;;;4975326;28;20027;-73